Time;durP1;ratioP1;P1;durP2;ratioP2;P2;SDS_P1;SDS_P2;PMS_P1;PMS_P2;Temp;Humidity;BMP_temperature;BMP_pressure;BME280_temperature;BME280_humidity;BME280_pressure;Samples;Min_cycle;Max_cycle;Signal;HPM_P1;HPM_P2
2023/09/14 00:00:31;;;;;;;3.33;2.55;;;19.30;99.90;;;;;;5057007;28;20032;-78
2023/09/14 00:02:57;;;;;;;4.50;2.45;;;19.30;99.90;;;;;;5056754;28;20024;-77
2023/09/14 00:05:23;;;;;;;4.00;2.90;;;19.20;99.90;;;;;;5074969;28;20036;-78
2023/09/14 00:07:48;;;;;;;3.38;2.33;;;19.30;99.90;;;;;;5057035;28;20373;-78
2023/09/14 00:10:14;;;;;;;3.42;2.55;;;19.30;99.90;;;;;;5057071;28;20024;-78
2023/09/14 00:12:40;;;;;;;3.03;2.28;;;19.20;99.90;;;;;;5074803;28;20033;-78
2023/09/14 00:15:05;;;;;;;4.05;2.42;;;19.30;99.90;;;;;;5056426;28;20055;-78
2023/09/14 00:17:31;;;;;;;4.32;2.47;;;19.20;99.90;;;;;;5074538;28;20021;-78
2023/09/14 00:19:57;;;;;;;3.33;2.25;;;19.20;99.90;;;;;;5056008;28;20028;-78
2023/09/14 00:22:22;;;;;;;2.58;2.20;;;19.20;99.90;;;;;;5056587;28;20078;-78
2023/09/14 00:24:48;;;;;;;4.68;2.10;;;19.30;99.90;;;;;;5056787;28;20488;-86
2023/09/14 00:27:13;;;;;;;3.45;2.38;;;19.30;99.90;;;;;;5074413;28;20066;-78
2023/09/14 00:29:39;;;;;;;4.80;2.30;;;19.30;99.90;;;;;;5055864;28;20135;-78
2023/09/14 00:32:05;;;;;;;5.85;2.10;;;19.30;99.90;;;;;;5055674;28;20040;-77
2023/09/14 00:34:30;;;;;;;7.50;2.15;;;19.30;99.90;;;;;;5056251;28;20031;-78
2023/09/14 00:36:56;;;;;;;4.53;2.33;;;19.40;99.90;;;;;;5056189;28;20107;-78
2023/09/14 00:39:21;;;;;;;4.03;2.17;;;19.40;99.90;;;;;;5074213;28;20036;-78
2023/09/14 00:41:47;;;;;;;3.00;2.50;;;19.40;99.90;;;;;;5056282;28;20033;-87
2023/09/14 00:44:12;;;;;;;6.63;2.50;;;19.40;99.90;;;;;;5056452;28;20028;-78
2023/09/14 00:46:38;;;;;;;3.03;2.20;;;19.50;99.90;;;;;;5056329;28;20409;-77
2023/09/14 00:49:04;;;;;;;4.63;2.20;;;19.50;99.90;;;;;;5054963;28;20020;-77
2023/09/14 00:51:30;;;;;;;3.22;2.20;;;19.40;99.90;;;;;;5056179;28;20048;-77
2023/09/14 00:53:58;;;;;;;4.45;2.50;;;19.40;99.90;;;;;;5055568;28;20028;-77
2023/09/14 00:56:26;;;;;;;2.97;2.00;;;19.30;99.90;;;;;;5074064;28;20021;-77
2023/09/14 00:58:53;;;;;;;5.00;1.92;;;19.40;99.90;;;;;;5072948;28;20016;-78
2023/09/14 01:01:19;;;;;;;3.17;1.60;;;19.30;99.90;;;;;;5055678;28;20032;-78
2023/09/14 01:03:45;;;;;;;2.65;1.75;;;19.40;99.90;;;;;;5073355;28;20036;-78
2023/09/14 01:06:11;;;;;;;2.55;1.60;;;19.40;99.90;;;;;;5055345;28;20043;-78
2023/09/14 01:08:37;;;;;;;2.97;1.80;;;19.30;99.90;;;;;;5073531;28;20036;-78
2023/09/14 01:11:03;;;;;;;5.47;1.45;;;19.30;99.90;;;;;;5055717;28;20028;-77
2023/09/14 01:13:46;;;;;;;2.55;1.63;;;19.30;99.90;;;;;;5055808;28;20027;-78
2023/09/14 01:16:25;;;;;;;2.10;1.55;;;19.20;99.90;;;;;;5055724;28;20101;-78
2023/09/14 01:19:23;;;;;;;3.20;1.65;;;19.20;99.90;;;;;;5055231;28;20040;-83
2023/09/14 01:22:04;;;;;;;6.70;1.98;;;19.20;99.90;;;;;;5055800;28;20032;-81
2023/09/14 01:24:52;;;;;;;2.28;1.58;;;19.20;99.90;;;;;;5073894;28;20033;-78
2023/09/14 01:27:17;;;;;;;2.40;1.15;;;19.20;99.90;;;;;;5055724;28;20051;-77
2023/09/14 01:29:43;;;;;;;3.08;1.10;;;19.10;99.90;;;;;;5055409;28;20020;-78
2023/09/14 01:32:09;;;;;;;3.08;1.08;;;19.10;99.90;;;;;;5073036;28;20032;-77
2023/09/14 01:34:35;;;;;;;2.25;1.30;;;19.10;99.90;;;;;;5055762;28;20036;-77
2023/09/14 01:37:04;;;;;;;2.65;1.02;;;19.00;99.90;;;;;;5055368;28;20029;-78
2023/09/14 01:39:31;;;;;;;3.88;1.20;;;19.10;99.90;;;;;;5073429;28;20054;-78
2023/09/14 01:41:58;;;;;;;1.52;1.23;;;19.00;99.90;;;;;;5055312;28;20483;-78
2023/09/14 01:44:27;;;;;;;1.52;1.00;;;19.00;99.90;;;;;;5055761;28;20033;-78
2023/09/14 01:46:53;;;;;;;2.25;1.20;;;18.90;99.90;;;;;;5054738;28;20031;-86
2023/09/14 01:49:19;;;;;;;1.95;1.13;;;19.00;99.90;;;;;;5055422;28;20462;-78
2023/09/14 01:51:45;;;;;;;2.90;1.15;;;19.00;99.90;;;;;;5073711;28;20035;-78
2023/09/14 01:54:11;;;;;;;4.07;0.98;;;19.00;99.90;;;;;;5055197;28;20120;-78
2023/09/14 01:56:37;;;;;;;2.22;0.88;;;18.90;99.90;;;;;;5055603;28;20123;-78
2023/09/14 01:59:02;;;;;;;1.98;1.13;;;18.90;99.90;;;;;;5073622;28;20457;-78
2023/09/14 02:01:28;;;;;;;2.00;0.90;;;18.90;99.90;;;;;;5077470;28;20029;-78
2023/09/14 02:03:54;;;;;;;2.88;1.08;;;18.90;99.90;;;;;;5076754;28;20107;-85
2023/09/14 02:06:20;;;;;;;2.72;0.98;;;18.90;99.90;;;;;;5059486;28;20025;-78
2023/09/14 02:08:46;;;;;;;2.55;1.02;;;18.90;99.90;;;;;;5059121;28;20029;-77
2023/09/14 02:11:13;;;;;;;2.78;1.23;;;18.70;99.90;;;;;;5058975;28;20032;-78
2023/09/14 02:13:39;;;;;;;3.88;1.30;;;18.70;99.90;;;;;;5059553;28;20070;-77
2023/09/14 02:16:05;;;;;;;3.45;1.10;;;18.60;99.90;;;;;;5076691;28;20021;-78
2023/09/14 02:18:31;;;;;;;2.15;0.93;;;18.50;99.90;;;;;;5059578;28;20039;-78
2023/09/14 02:20:56;;;;;;;2.80;1.20;;;18.50;99.90;;;;;;5059135;28;20116;-79
2023/09/14 02:23:22;;;;;;;1.27;1.00;;;18.50;99.90;;;;;;5059173;28;20037;-78
2023/09/14 02:25:49;;;;;;;3.08;1.00;;;18.40;99.90;;;;;;5059023;28;20461;-78
2023/09/14 02:28:15;;;;;;;2.00;1.27;;;18.30;99.90;;;;;;5075968;28;20078;-78
2023/09/14 02:30:42;;;;;;;2.47;1.10;;;18.30;99.90;;;;;;5059356;28;20359;-78
2023/09/14 02:33:08;;;;;;;2.50;1.55;;;18.20;99.90;;;;;;5058512;28;20123;-78
2023/09/14 02:35:34;;;;;;;2.22;1.17;;;18.10;99.90;;;;;;5059021;28;20032;-78
2023/09/14 02:38:00;;;;;;;1.55;1.13;;;18.10;99.90;;;;;;5058519;28;20147;-78
2023/09/14 02:40:25;;;;;;;2.42;1.30;;;18.10;99.90;;;;;;5059114;28;20062;-78
2023/09/14 02:42:51;;;;;;;3.45;1.05;;;18.10;99.90;;;;;;5058466;28;20021;-78
2023/09/14 02:45:17;;;;;;;4.78;1.30;;;18.00;99.90;;;;;;5076107;28;20082;-77
2023/09/14 02:47:42;;;;;;;2.40;1.15;;;18.10;99.90;;;;;;5058994;28;20036;-78
2023/09/14 02:50:08;;;;;;;4.07;1.27;;;18.10;99.90;;;;;;5058312;28;20123;-78
2023/09/14 02:52:33;;;;;;;3.47;1.30;;;18.10;99.90;;;;;;5058546;28;20028;-77
2023/09/14 02:54:59;;;;;;;4.00;1.40;;;18.00;99.90;;;;;;5076134;28;20480;-78
2023/09/14 02:57:25;;;;;;;1.75;1.23;;;18.00;99.90;;;;;;5058450;28;20020;-78
2023/09/14 02:59:54;;;;;;;2.42;1.35;;;17.90;99.90;;;;;;5058170;28;20034;-78
2023/09/14 03:02:21;;;;;;;6.20;1.45;;;17.80;99.90;;;;;;5058053;28;20037;-78
2023/09/14 03:04:47;;;;;;;2.33;1.30;;;17.80;99.90;;;;;;5076101;28;20024;-78
2023/09/14 03:07:12;;;;;;;2.95;1.45;;;17.80;99.90;;;;;;5057448;28;20094;-81
2023/09/14 03:09:38;;;;;;;1.92;1.23;;;17.80;99.90;;;;;;5057698;28;20025;-77
2023/09/14 03:12:04;;;;;;;4.40;1.13;;;17.90;99.90;;;;;;5055953;28;20466;-78
2023/09/14 03:14:30;;;;;;;2.63;1.33;;;17.80;99.90;;;;;;5075682;28;20056;-77
2023/09/14 03:16:57;;;;;;;3.13;1.40;;;17.80;99.90;;;;;;5057719;28;20029;-84
2023/09/14 03:19:23;;;;;;;3.33;1.45;;;17.80;99.90;;;;;;5058257;28;20473;-77
2023/09/14 03:21:49;;;;;;;6.05;1.40;;;17.80;99.90;;;;;;5057715;28;20029;-78
2023/09/14 03:24:14;;;;;;;3.08;1.10;;;17.80;99.90;;;;;;5075288;28;20044;-78
2023/09/14 03:26:40;;;;;;;3.72;1.38;;;17.70;99.90;;;;;;5075423;28;20048;-78
2023/09/14 03:29:05;;;;;;;4.95;1.60;;;17.70;99.90;;;;;;5057374;28;20032;-78
2023/09/14 03:31:31;;;;;;;2.55;1.10;;;17.60;99.90;;;;;;5057665;28;20032;-77
2023/09/14 03:33:57;;;;;;;2.55;1.25;;;17.60;99.90;;;;;;5057660;28;20020;-83
2023/09/14 03:36:22;;;;;;;2.75;1.23;;;17.50;99.90;;;;;;5057665;28;20028;-78
2023/09/14 03:38:48;;;;;;;4.40;1.20;;;17.50;99.90;;;;;;5057878;28;20024;-78
2023/09/14 03:41:14;;;;;;;3.40;1.10;;;17.40;99.90;;;;;;5057325;28;20094;-78
2023/09/14 03:43:42;;;;;;;1.77;1.00;;;17.40;99.90;;;;;;5057647;28;20063;-78
2023/09/14 03:46:09;;;;;;;2.25;0.95;;;17.30;99.90;;;;;;5074992;28;20025;-79
2023/09/14 03:48:35;;;;;;;2.10;0.80;;;17.30;99.90;;;;;;5057620;28;20028;-79
2023/09/14 03:51:01;;;;;;;2.13;0.95;;;17.30;99.90;;;;;;5075100;28;20419;-81
2023/09/14 03:53:27;;;;;;;2.08;0.98;;;17.30;99.90;;;;;;5057701;28;20055;-78
2023/09/14 03:55:59;;;;;;;2.13;0.80;;;17.30;99.90;;;;;;5057360;28;20033;-78
2023/09/14 03:58:25;;;;;;;3.17;0.80;;;17.30;99.90;;;;;;5075132;28;20059;-79
2023/09/14 04:00:51;;;;;;;1.98;0.70;;;17.20;99.90;;;;;;5075098;28;20055;-79
2023/09/14 04:03:17;;;;;;;1.52;0.90;;;17.30;99.90;;;;;;5056754;28;20445;-79
2023/09/14 04:05:44;;;;;;;3.95;1.10;;;17.20;99.90;;;;;;5057384;28;20442;-78
2023/09/14 04:08:09;;;;;;;2.55;0.70;;;17.20;99.90;;;;;;5056680;28;20029;-76
2023/09/14 04:10:39;;;;;;;1.55;0.70;;;17.20;99.90;;;;;;5056773;28;20170;-80
2023/09/14 04:13:26;;;;;;;2.58;1.15;;;17.10;99.90;;;;;;5074597;28;20035;-80
2023/09/14 04:15:52;;;;;;;1.35;0.80;;;17.10;99.90;;;;;;5057082;28;20161;-80
2023/09/14 04:18:18;;;;;;;1.70;0.77;;;17.10;99.90;;;;;;5073977;28;20645;-80
2023/09/14 04:20:44;;;;;;;2.90;1.10;;;17.10;99.90;;;;;;5057244;28;20026;-79
2023/09/14 04:23:09;;;;;;;1.85;0.90;;;17.00;99.90;;;;;;5074027;28;20086;-80
2023/09/14 04:25:36;;;;;;;1.92;0.95;;;17.00;99.90;;;;;;5056827;28;20060;-80
2023/09/14 04:28:02;;;;;;;2.65;1.20;;;16.80;99.90;;;;;;5073990;28;20024;-87
2023/09/14 04:30:28;;;;;;;2.58;0.88;;;16.80;99.90;;;;;;5061836;28;20093;-80
2023/09/14 04:32:54;;;;;;;2.17;1.13;;;16.80;99.90;;;;;;5072973;28;20020;-82
2023/09/14 04:35:19;;;;;;;2.78;1.35;;;16.80;99.90;;;;;;5081629;28;20016;-78
2023/09/14 04:37:45;;;;;;;4.32;1.92;;;16.80;99.90;;;;;;5065816;28;20024;-81
2023/09/14 04:40:11;;;;;;;2.38;1.20;;;16.80;99.90;;;;;;5084626;28;20451;-81
2023/09/14 04:42:36;;;;;;;4.57;1.63;;;16.70;99.90;;;;;;5070963;28;20033;-81
2023/09/14 04:45:02;;;;;;;3.00;1.52;;;16.70;99.90;;;;;;5085153;28;20044;-85
2023/09/14 04:47:28;;;;;;;2.17;1.33;;;16.80;99.90;;;;;;5061559;28;20028;-81
2023/09/14 04:49:53;;;;;;;4.55;1.70;;;16.80;99.90;;;;;;5065342;28;20650;-80
2023/09/14 04:52:19;;;;;;;5.22;1.77;;;16.70;99.90;;;;;;5075095;28;20036;-80
2023/09/14 04:54:45;;;;;;;3.28;1.50;;;16.70;99.90;;;;;;5085897;28;20031;-80
2023/09/14 04:57:10;;;;;;;2.13;1.55;;;16.70;99.90;;;;;;5061962;28;20173;-80
2023/09/14 04:59:36;;;;;;;3.17;1.60;;;16.70;99.90;;;;;;5080503;28;20024;-80
2023/09/14 05:02:01;;;;;;;3.17;1.80;;;16.70;99.90;;;;;;5082786;28;20390;-90
2023/09/14 05:04:27;;;;;;;5.32;1.70;;;16.70;99.90;;;;;;5079161;28;20036;-80
2023/09/14 05:06:53;;;;;;;5.80;2.28;;;16.70;99.90;;;;;;5061199;28;20478;-80
2023/09/14 05:09:18;;;;;;;4.47;2.20;;;16.60;99.90;;;;;;5089332;28;20094;-80
2023/09/14 05:11:44;;;;;;;5.43;1.98;;;16.70;99.90;;;;;;5078247;28;20028;-84
2023/09/14 05:14:09;;;;;;;6.20;1.65;;;16.60;99.90;;;;;;5085655;28;20032;-80
2023/09/14 05:16:35;;;;;;;6.80;2.08;;;16.50;99.90;;;;;;5066504;28;20573;-80
2023/09/14 05:19:00;;;;;;;2.55;1.90;;;16.40;99.90;;;;;;5088920;28;20037;-81
2023/09/14 05:21:26;;;;;;;5.25;2.20;;;16.40;99.90;;;;;;5071461;28;20032;-79
2023/09/14 05:23:52;;;;;;;4.47;2.25;;;16.40;99.90;;;;;;5067229;28;20036;-80
2023/09/14 05:26:17;;;;;;;5.22;2.25;;;16.50;99.90;;;;;;5085722;28;20016;-80
2023/09/14 05:28:43;;;;;;;4.82;2.20;;;16.40;99.90;;;;;;5077774;28;20063;-82
2023/09/14 05:31:08;;;;;;;3.15;2.22;;;16.40;99.90;;;;;;5076825;28;20215;-79
2023/09/14 05:33:34;;;;;;;3.25;2.22;;;16.30;99.90;;;;;;5061640;28;20029;-82
2023/09/14 05:36:00;;;;;;;4.53;2.13;;;16.30;99.90;;;;;;5084372;28;20032;-78
2023/09/14 05:38:25;;;;;;;3.67;2.10;;;16.40;99.90;;;;;;5082281;28;20055;-78
2023/09/14 05:40:52;;;;;;;8.38;2.40;;;16.40;99.90;;;;;;5093798;28;20145;-79
2023/09/14 05:43:18;;;;;;;3.17;2.17;;;16.30;99.90;;;;;;5071130;28;20089;-79
2023/09/14 05:45:43;;;;;;;7.88;2.58;;;16.40;99.90;;;;;;5082997;28;20029;-79
2023/09/14 05:48:09;;;;;;;4.57;2.58;;;16.40;99.90;;;;;;5071146;28;20028;-80
2023/09/14 05:50:35;;;;;;;4.72;2.53;;;16.30;99.90;;;;;;5071809;28;20047;-79
2023/09/14 05:53:02;;;;;;;5.35;2.45;;;16.40;99.90;;;;;;5083743;28;20038;-79
2023/09/14 05:55:27;;;;;;;6.30;2.20;;;16.40;99.90;;;;;;5069586;28;20028;-78
2023/09/14 05:57:54;;;;;;;4.72;2.53;;;16.40;99.90;;;;;;5069986;28;20025;-79
2023/09/14 06:00:19;;;;;;;10.30;2.38;;;16.50;99.90;;;;;;5081418;28;20078;-81
2023/09/14 06:02:45;;;;;;;4.50;2.58;;;16.50;99.90;;;;;;5084019;28;20025;-80
2023/09/14 06:05:12;;;;;;;3.22;1.77;;;16.50;99.90;;;;;;5070202;28;20094;-80
2023/09/14 06:07:37;;;;;;;5.05;1.90;;;16.50;99.90;;;;;;5061761;28;20051;-80
2023/09/14 06:10:03;;;;;;;3.58;1.85;;;16.50;99.90;;;;;;5080178;28;20056;-80
2023/09/14 06:12:29;;;;;;;5.90;1.73;;;16.50;99.90;;;;;;5063281;28;20123;-80
2023/09/14 06:14:56;;;;;;;3.72;1.63;;;16.50;99.90;;;;;;5070875;28;20028;-80
2023/09/14 06:17:22;;;;;;;6.10;1.63;;;16.60;99.90;;;;;;5081472;28;20031;-79
2023/09/14 06:19:48;;;;;;;3.67;1.40;;;16.60;99.90;;;;;;5068643;28;20024;-80
2023/09/14 06:22:13;;;;;;;3.95;1.80;;;16.70;99.90;;;;;;5088822;28;20040;-80
2023/09/14 06:24:39;;;;;;;4.32;1.55;;;16.70;99.90;;;;;;5085774;28;20029;-81
2023/09/14 06:27:05;;;;;;;3.80;1.52;;;16.70;99.90;;;;;;5077145;28;20358;-80
2023/09/14 06:29:30;;;;;;;6.93;1.35;;;16.70;99.90;;;;;;5080431;28;20115;-78
2023/09/14 06:31:56;;;;;;;8.77;1.75;;;16.70;99.90;;;;;;5073343;28;20125;-81
2023/09/14 06:34:21;;;;;;;4.05;1.52;;;16.60;99.90;;;;;;5082875;28;20029;-80
2023/09/14 06:36:47;;;;;;;5.53;1.40;;;16.60;99.90;;;;;;5091672;28;20028;-81
2023/09/14 06:39:13;;;;;;;3.72;1.35;;;16.60;99.90;;;;;;5068194;28;20028;-80
2023/09/14 06:41:39;;;;;;;3.92;1.60;;;16.50;99.90;;;;;;5068594;28;20137;-79
2023/09/14 06:44:05;;;;;;;2.60;1.50;;;16.50;99.90;;;;;;5064882;28;20116;-79
2023/09/14 06:46:31;;;;;;;2.72;1.40;;;16.50;99.90;;;;;;5082879;28;20044;-80
2023/09/14 06:48:57;;;;;;;6.68;2.13;;;16.60;99.90;;;;;;5070334;28;20074;-85
2023/09/14 06:51:22;;;;;;;3.78;1.63;;;16.60;99.90;;;;;;5077836;28;20059;-80
2023/09/14 06:53:48;;;;;;;4.03;1.40;;;16.60;99.90;;;;;;5074162;28;20111;-80
2023/09/14 06:56:15;;;;;;;4.90;1.40;;;16.60;99.90;;;;;;5061973;28;21188;-81
2023/09/14 06:58:41;;;;;;;4.68;1.50;;;16.70;99.90;;;;;;5041985;28;20113;-80
2023/09/14 07:01:07;;;;;;;6.15;1.58;;;16.70;99.90;;;;;;5081058;28;20036;-79
2023/09/14 07:03:34;;;;;;;7.35;1.90;;;16.70;99.90;;;;;;5091857;28;20032;-79
2023/09/14 07:06:00;;;;;;;2.65;1.30;;;16.70;99.90;;;;;;5066593;28;20033;-81
2023/09/14 07:08:26;;;;;;;6.20;2.00;;;16.80;99.90;;;;;;5064060;28;20074;-79
2023/09/14 07:10:54;;;;;;;3.42;1.50;;;16.80;99.90;;;;;;5079661;28;20021;-80
2023/09/14 07:13:20;;;;;;;4.30;1.70;;;16.90;99.90;;;;;;5079116;28;20529;-84
2023/09/14 07:15:46;;;;;;;3.78;1.55;;;16.80;99.90;;;;;;5067698;28;20574;-80
2023/09/14 07:19:00;;;;;;;3.15;1.40;;;16.80;99.90;;;;;;5081638;28;20115;-81
2023/09/14 07:21:26;;;;;;;2.20;1.17;;;16.80;99.90;;;;;;5084090;28;20040;-80
2023/09/14 07:23:52;;;;;;;4.45;1.48;;;16.90;99.90;;;;;;5081133;28;20031;-79
2023/09/14 07:26:17;;;;;;;4.20;1.30;;;16.90;99.90;;;;;;5064847;28;20017;-80
2023/09/14 07:28:43;;;;;;;3.55;1.50;;;16.90;99.90;;;;;;5062352;28;20037;-80
2023/09/14 07:31:09;;;;;;;4.63;1.60;;;17.00;99.90;;;;;;5081595;28;20393;-88
2023/09/14 07:33:34;;;;;;;3.13;1.52;;;17.00;99.90;;;;;;5078947;28;20044;-87
2023/09/14 07:36:00;;;;;;;3.83;1.60;;;17.00;99.90;;;;;;5079648;28;20434;-80
2023/09/14 07:38:26;;;;;;;4.97;1.20;;;17.10;99.90;;;;;;5082555;28;20031;-79
2023/09/14 07:40:51;;;;;;;4.32;1.52;;;17.10;99.90;;;;;;5078877;28;20111;-82
2023/09/14 07:43:17;;;;;;;2.08;1.30;;;17.10;99.90;;;;;;5079809;28;20063;-80
2023/09/14 07:45:43;;;;;;;3.85;1.40;;;17.20;99.90;;;;;;5083726;28;20077;-80
2023/09/14 07:48:09;;;;;;;5.35;1.60;;;17.20;99.90;;;;;;5063222;28;20058;-80
2023/09/14 07:50:36;;;;;;;3.13;1.50;;;17.20;99.90;;;;;;5078329;28;20481;-79
2023/09/14 07:53:03;;;;;;;3.72;1.50;;;17.20;99.90;;;;;;5059810;28;20059;-83
2023/09/14 07:55:29;;;;;;;3.83;1.40;;;17.20;99.90;;;;;;5064110;28;20021;-86
2023/09/14 07:57:55;;;;;;;5.97;1.50;;;17.30;99.90;;;;;;5082478;28;20030;-81
2023/09/14 08:00:20;;;;;;;2.78;1.38;;;17.30;99.90;;;;;;5076983;28;20107;-83
2023/09/14 08:02:46;;;;;;;2.78;1.23;;;17.40;99.90;;;;;;5063865;28;20036;-81
2023/09/14 08:05:12;;;;;;;2.58;1.20;;;17.40;99.90;;;;;;5086683;28;20021;-88
2023/09/14 08:07:38;;;;;;;4.20;1.17;;;17.40;99.90;;;;;;5066008;28;20024;-82
2023/09/14 08:10:04;;;;;;;3.38;1.20;;;17.40;99.90;;;;;;5064851;28;20028;-82
2023/09/14 08:12:29;;;;;;;2.70;1.48;;;17.40;99.90;;;;;;5068520;28;20129;-81
2023/09/14 08:14:55;;;;;;;3.17;1.10;;;17.50;99.90;;;;;;5066793;28;20519;-82
2023/09/14 08:17:21;;;;;;;3.55;1.52;;;17.50;99.90;;;;;;5078049;28;20474;-80
2023/09/14 08:19:46;;;;;;;2.65;1.20;;;17.60;99.90;;;;;;5066185;28;20032;-81
2023/09/14 08:22:12;;;;;;;4.38;1.23;;;17.60;99.90;;;;;;5087866;28;20481;-85
2023/09/14 08:24:37;;;;;;;6.68;1.75;;;17.60;99.90;;;;;;5080579;28;20457;-80
2023/09/14 08:27:03;;;;;;;2.97;1.30;;;17.60;99.90;;;;;;5086171;28;20078;-81
2023/09/14 08:29:30;;;;;;;5.22;1.30;;;17.60;99.90;;;;;;5080379;28;20036;-81
2023/09/14 08:31:55;;;;;;;2.28;1.20;;;17.70;99.90;;;;;;5081591;28;20040;-79
2023/09/14 08:34:21;;;;;;;6.10;1.60;;;17.60;99.90;;;;;;5079376;28;20032;-80
2023/09/14 08:36:46;;;;;;;6.35;1.27;;;17.70;99.90;;;;;;5068958;28;20052;-84
2023/09/14 08:39:12;;;;;;;2.60;0.98;;;17.80;99.90;;;;;;5082276;28;20032;-90
2023/09/14 08:41:43;;;;;;;4.65;1.27;;;17.90;99.90;;;;;;5084032;28;20035;-82
2023/09/14 08:44:09;;;;;;;3.35;1.38;;;17.90;99.90;;;;;;5085305;28;20058;-79
2023/09/14 08:46:35;;;;;;;2.60;1.45;;;18.00;99.90;;;;;;5068173;28;20036;-80
2023/09/14 08:49:03;;;;;;;2.90;1.33;;;18.00;99.90;;;;;;5081666;28;20035;-79
2023/09/14 08:51:31;;;;;;;2.45;1.33;;;18.00;99.90;;;;;;5065220;28;20043;-80
2023/09/14 08:53:58;;;;;;;2.60;1.48;;;18.00;99.90;;;;;;5063203;28;20032;-81
2023/09/14 08:56:25;;;;;;;3.58;1.30;;;18.10;99.90;;;;;;5068504;28;20033;-82
2023/09/14 08:58:52;;;;;;;2.97;1.10;;;18.20;99.90;;;;;;5062278;28;20101;-82
2023/09/14 09:01:18;;;;;;;2.05;1.58;;;18.20;99.90;;;;;;5061360;28;20030;-83
2023/09/14 09:03:44;;;;;;;6.97;1.42;;;18.20;99.90;;;;;;5060713;28;20037;-84
2023/09/14 09:06:17;;;;;;;2.85;1.27;;;18.20;99.90;;;;;;5063615;28;20023;-86
2023/09/14 09:08:43;;;;;;;2.13;1.30;;;18.20;99.90;;;;;;5064767;28;20711;-83
2023/09/14 09:11:09;;;;;;;1.75;1.05;;;18.30;99.90;;;;;;5058270;28;20029;-82
2023/09/14 09:13:40;;;;;;;5.18;1.48;;;18.30;99.90;;;;;;5059713;28;20040;-80
2023/09/14 09:16:05;;;;;;;3.72;1.42;;;18.40;99.90;;;;;;5073722;28;20481;-80
2023/09/14 09:18:31;;;;;;;5.75;1.50;;;18.50;99.90;;;;;;5062709;28;20062;-79
2023/09/14 09:20:57;;;;;;;4.55;1.35;;;18.50;99.90;;;;;;5078258;28;20035;-79
2023/09/14 09:23:25;;;;;;;3.08;1.35;;;18.50;99.90;;;;;;5067347;28;20605;-80
2023/09/14 09:25:54;;;;;;;3.63;1.00;;;18.60;99.90;;;;;;5060641;28;20115;-84
2023/09/14 09:28:31;;;;;;;4.68;1.30;;;18.50;99.90;;;;;;5082321;28;20027;-79
2023/09/14 09:30:57;;;;;;;4.40;1.30;;;18.60;99.90;;;;;;5064990;28;20086;-80
2023/09/14 09:33:36;;;;;;;4.38;1.33;;;18.70;99.90;;;;;;5065630;28;20036;-79
2023/09/14 09:36:17;;;;;;;2.97;1.50;;;18.70;99.90;;;;;;5061868;28;20033;-82
2023/09/14 09:38:43;;;;;;;6.22;1.30;;;18.80;99.90;;;;;;5059579;28;20025;-81
2023/09/14 09:41:12;;;;;;;2.50;1.38;;;18.80;99.90;;;;;;5061876;28;20107;-81
2023/09/14 09:43:40;;;;;;;2.40;1.20;;;18.80;99.90;;;;;;5057413;28;20032;-83
2023/09/14 09:46:18;;;;;;;2.75;1.30;;;18.80;99.90;;;;;;5079786;28;20024;-84
2023/09/14 09:48:44;;;;;;;3.83;1.30;;;18.80;99.90;;;;;;5067286;28;20119;-82
2023/09/14 09:51:10;;;;;;;2.13;1.00;;;18.90;99.90;;;;;;5080150;28;20111;-82
2023/09/14 09:53:36;;;;;;;5.60;1.20;;;19.00;99.90;;;;;;5083035;28;20035;-80
2023/09/14 09:56:02;;;;;;;2.90;1.23;;;19.00;99.90;;;;;;5062859;28;20032;-82
2023/09/14 09:58:38;;;;;;;2.20;1.05;;;19.10;99.90;;;;;;5077305;28;20039;-83
2023/09/14 10:01:04;;;;;;;5.35;1.60;;;19.20;99.90;;;;;;5059729;28;20099;-82
2023/09/14 10:03:30;;;;;;;2.35;1.15;;;19.20;99.90;;;;;;5067546;28;20749;-82
2023/09/14 10:05:56;;;;;;;5.32;1.00;;;19.20;99.90;;;;;;5072254;28;20426;-81
2023/09/14 10:08:22;;;;;;;4.18;1.40;;;19.20;99.90;;;;;;5062690;28;20111;-82
2023/09/14 10:10:53;;;;;;;2.50;1.33;;;19.20;99.90;;;;;;5063986;28;20112;-80
2023/09/14 10:13:23;;;;;;;1.85;1.00;;;19.30;99.90;;;;;;5063443;28;20028;-81
2023/09/14 10:15:56;;;;;;;3.20;1.30;;;19.30;99.90;;;;;;5080821;28;20035;-80
2023/09/14 10:18:24;;;;;;;2.95;1.10;;;19.30;99.90;;;;;;5078341;28;20059;-81
2023/09/14 10:20:53;;;;;;;3.13;1.10;;;19.30;99.80;;;;;;5062441;28;20102;-83
2023/09/14 10:23:20;;;;;;;2.75;1.13;;;19.30;99.60;;;;;;5084357;28;20039;-82
2023/09/14 10:25:47;;;;;;;3.08;1.23;;;19.30;99.70;;;;;;5063914;28;20035;-82
2023/09/14 10:28:14;;;;;;;3.72;1.25;;;19.40;99.80;;;;;;5074725;28;20107;-87
2023/09/14 10:30:42;;;;;;;4.00;1.23;;;19.40;99.80;;;;;;5065371;28;20437;-80
2023/09/14 10:33:09;;;;;;;3.85;1.42;;;19.40;99.70;;;;;;5065820;28;20396;-81
2023/09/14 10:35:38;;;;;;;3.38;1.50;;;19.50;99.80;;;;;;5084795;28;20016;-83
2023/09/14 10:38:05;;;;;;;1.73;0.95;;;19.50;99.70;;;;;;5069909;28;20096;-85
2023/09/14 10:40:34;;;;;;;2.75;1.35;;;19.50;99.60;;;;;;5081381;28;20052;-83
2023/09/14 10:43:00;;;;;;;6.10;1.55;;;19.60;99.70;;;;;;5060186;28;20033;-86
2023/09/14 10:45:34;;;;;;;2.78;1.50;;;19.60;99.50;;;;;;5066914;28;20024;-79
2023/09/14 10:48:02;;;;;;;6.65;1.33;;;19.60;99.30;;;;;;5065355;28;20029;-79
2023/09/14 10:50:28;;;;;;;3.05;1.30;;;19.60;99.10;;;;;;5087546;28;20044;-79
2023/09/14 10:52:54;;;;;;;4.07;1.17;;;19.60;99.20;;;;;;5059944;28;20094;-80
2023/09/14 10:55:24;;;;;;;4.45;1.65;;;19.70;99.20;;;;;;5089356;28;20035;-79
2023/09/14 10:57:50;;;;;;;2.72;1.40;;;19.70;98.80;;;;;;5063978;28;20033;-80
2023/09/14 11:00:36;;;;;;;1.60;1.00;;;19.70;98.60;;;;;;5080130;28;20060;-80
2023/09/14 11:03:02;;;;;;;3.47;1.63;;;19.80;98.50;;;;;;5080280;28;20116;-82
2023/09/14 11:05:47;;;;;;;2.75;1.25;;;19.80;98.50;;;;;;5081107;28;20060;-79
2023/09/14 11:08:17;;;;;;;2.22;1.30;;;19.80;98.30;;;;;;5067483;28;20020;-90
2023/09/14 11:11:00;;;;;;;3.38;1.30;;;19.90;98.30;;;;;;5065319;28;20062;-81
2023/09/14 11:13:28;;;;;;;4.00;1.20;;;19.90;98.60;;;;;;5046903;28;20069;-84
2023/09/14 11:16:05;;;;;;;4.40;1.45;;;20.00;98.60;;;;;;5074505;28;20583;-81
2023/09/14 11:18:35;;;;;;;9.50;1.45;;;20.00;98.60;;;;;;5067837;28;20145;-81
2023/09/14 11:21:00;;;;;;;3.83;1.80;;;20.00;98.30;;;;;;5085610;28;20178;-81
2023/09/14 11:23:36;;;;;;;3.08;1.23;;;20.10;98.40;;;;;;5080803;28;20541;-86
2023/09/14 11:26:02;;;;;;;3.80;1.60;;;20.20;98.60;;;;;;5077080;28;20161;-84
2023/09/14 11:28:30;;;;;;;4.20;1.65;;;20.20;98.40;;;;;;5064149;28;20492;-82
2023/09/14 11:30:56;;;;;;;2.20;1.25;;;20.30;98.80;;;;;;5063826;28;20474;-82
2023/09/14 11:33:22;;;;;;;2.80;1.40;;;20.30;98.10;;;;;;5083895;28;20039;-87
2023/09/14 11:35:51;;;;;;;4.10;1.67;;;20.30;98.20;;;;;;5068364;28;20470;-80
2023/09/14 11:38:19;;;;;;;5.97;1.40;;;20.40;97.80;;;;;;5075505;28;20048;-81
2023/09/14 11:40:45;;;;;;;6.78;1.58;;;20.40;98.00;;;;;;5078976;28;20052;-81
2023/09/14 11:43:21;;;;;;;2.30;1.42;;;20.50;97.80;;;;;;5067319;28;20085;-89
2023/09/14 11:45:49;;;;;;;6.50;1.35;;;20.60;97.90;;;;;;5064833;28;20028;-82
2023/09/14 11:48:16;;;;;;;4.65;1.50;;;20.60;97.70;;;;;;5082229;28;20503;-87
2023/09/14 11:50:44;;;;;;;2.22;1.27;;;20.70;97.30;;;;;;5062699;28;20083;-81
2023/09/14 11:53:13;;;;;;;2.30;1.50;;;20.70;97.20;;;;;;5064642;28;20106;-80
2023/09/14 11:55:39;;;;;;;4.88;1.58;;;20.70;97.10;;;;;;5083123;28;20024;-82
2023/09/14 11:58:05;;;;;;;2.22;1.42;;;20.80;97.10;;;;;;5060621;28;20629;-86
2023/09/14 12:00:41;;;;;;;3.47;1.13;;;20.90;96.90;;;;;;5075445;28;20090;-80
2023/09/14 12:03:07;;;;;;;3.63;1.30;;;21.00;97.00;;;;;;5056827;28;20036;-82
2023/09/14 12:05:33;;;;;;;2.85;1.30;;;21.10;96.70;;;;;;5081269;28;20025;-84
2023/09/14 12:08:14;;;;;;;3.63;1.40;;;21.20;96.30;;;;;;5081776;28;20032;-84
2023/09/14 12:10:40;;;;;;;2.45;1.38;;;21.30;96.30;;;;;;5081849;28;20048;-84
2023/09/14 12:13:17;;;;;;;3.75;1.40;;;21.40;96.40;;;;;;5069267;28;20405;-87
2023/09/14 12:15:45;;;;;;;4.60;1.30;;;21.50;96.30;;;;;;5062304;28;20111;-84
2023/09/14 12:18:12;;;;;;;2.90;1.33;;;21.60;96.00;;;;;;5071599;28;20039;-88
2023/09/14 12:20:42;;;;;;;3.28;1.30;;;21.70;95.90;;;;;;5084260;28;20027;-84
2023/09/14 12:23:09;;;;;;;3.10;1.48;;;21.80;95.80;;;;;;5086320;28;20068;-87
2023/09/14 12:25:37;;;;;;;4.20;1.40;;;21.90;95.80;;;;;;5067009;28;20225;-84
2023/09/14 12:28:05;;;;;;;3.00;1.48;;;22.10;95.90;;;;;;5064530;28;20028;-83
2023/09/14 12:30:32;;;;;;;3.83;1.40;;;22.30;95.80;;;;;;5066262;28;20093;-82
2023/09/14 12:33:00;;;;;;;2.65;1.13;;;22.30;95.20;;;;;;5062581;28;20033;-84
2023/09/14 12:35:26;;;;;;;4.15;1.48;;;22.40;95.00;;;;;;5064718;28;20794;-81
2023/09/14 12:37:53;;;;;;;3.92;1.38;;;22.50;94.60;;;;;;5062310;28;20100;-79
2023/09/14 12:40:19;;;;;;;3.38;1.30;;;22.60;94.40;;;;;;5084647;28;20388;-82
2023/09/14 12:42:45;;;;;;;3.80;1.40;;;22.80;94.40;;;;;;5085597;28;20024;-81
2023/09/14 12:45:16;;;;;;;3.38;1.52;;;22.90;94.10;;;;;;5085545;28;20385;-83
2023/09/14 12:47:44;;;;;;;;;;;23.00;93.70;;;;;;5073141;28;20166;-81